Details From LJLJ - Ljubljana
To LOXZ - Zeltweg
Flight Number -
Tags Generated
Created
Modified
Stats Distance 60 nm / 110 km
Max Altitude 0 ft / 0 m
Waypoints 2
Social Downloads 0
Likes 0
Share VATSIM

Download

Looking for another format? Having issues loading an existing format? Contact us
Advertisement - Login to hide

Notes

Generated

Route

LJLJ LOXZ

ID Type Via Altitude Latitude Longitude Leg Dist Tot Dist Heading (true) Name
O LJLJ APT - 0 ft / 0 m 46.23249˚ 14.44039˚ - 0 nm - -
O LOXZ APT - 0 ft / 0 m 47.20382˚ 14.74032˚ 59 nm 59 nm 12° / 12° -

Altitude Profile

Advertisement - Login to hide

LJLJ

Details ICAO LJLJ (LJU)
Name LJUBLJANA
Region Slovenia
Timezone Europe/Ljubljana (UTC+2.0)
Stats Elevation 1,273 ft / 388 m (AMSL)
Location 46.223685° 14.457608°
Runways 1
Magnetic Variation 3.711° E

METAR

LJLJ 220100Z 30002KT 9999 SCT050 10/10 Q1014 NOSIG

Decode

TAF

TAF LJLJ 212000Z 2121/2221 11004KT 9999 SCT045 SCT110 BECMG 2121/2122 30002KT BECMG 2205/2208 FEW040 BKN060 BECMG 2209/2212 12005KT BKN035 TEMPO 2209/2220 SHRA SCT035TCU BKN040 PROB40 TEMPO 2213/2218 VRB10KT 7000 TSRA SCT030CB BKN035 BECMG 2218/2221 30004KT SCT035 SCT085

Decode

Departure Runways

ID Width Length Bearing (true) Bearing (mag) Surface Threshold Offset Overrun Length
13 148 ft / 45 m 10,811 ft / 3,295 m 126.47° 122.76° Asphalt 0 ft / 0 m 0 ft / 0 m
31 148 ft / 45 m 10,811 ft / 3,295 m 306.49° 302.78° Asphalt 0 ft / 0 m 0 ft / 0 m

LOXZ

Details ICAO LOXZ
Name ZELTWEG
Region Austria
Timezone Europe/Vienna (UTC+2.0)
Stats Elevation 2,220 ft / 677 m (AMSL)
Location 47.203682° 14.745855°
Runways 2
Magnetic Variation 3.836° E

METAR

LOXZ 212350Z VRB01KT 10KM FEW040SC SCT060SC 11/10 Q1016

Decode

TAF

Not found

Destination Runways

ID Width Length Bearing (true) Bearing (mag) Surface Threshold Offset Overrun Length
08 197 ft / 60 m 8,923 ft / 2,720 m 80.51° 76.67° Asphalt 492 ft / 150 m 115 ft / 35 m
08L 131 ft / 40 m 3,600 ft / 1,097 m 80.92° 77.08° Grass 0 ft / 0 m 115 ft / 35 m
26 197 ft / 60 m 8,923 ft / 2,720 m 260.53° 256.69° Asphalt 820 ft / 250 m 115 ft / 35 m
26R 131 ft / 40 m 3,600 ft / 1,097 m 260.93° 257.09° Grass 328 ft / 100 m 115 ft / 35 m